sensor_id;sensor_type;location;lat;lon;timestamp;temperature;humidity
31639;DHT22;18248;51.522;7.020;2022-10-16T00:01:35;14.70;99.90
31639;DHT22;18248;51.522;7.020;2022-10-16T00:04:34;14.70;99.90
31639;DHT22;18248;51.522;7.020;2022-10-16T00:07:32;14.70;99.90
31639;DHT22;18248;51.522;7.020;2022-10-16T00:10:31;14.70;99.90
31639;DHT22;18248;51.522;7.020;2022-10-16T00:13:30;14.70;99.90
31639;DHT22;18248;51.522;7.020;2022-10-16T00:16:28;14.60;99.90
31639;DHT22;18248;51.522;7.020;2022-10-16T00:19:28;14.60;99.90
31639;DHT22;18248;51.522;7.020;2022-10-16T00:22:27;14.60;99.90
31639;DHT22;18248;51.522;7.020;2022-10-16T00:25:27;14.50;99.90
31639;DHT22;18248;51.522;7.020;2022-10-16T00:28:26;14.50;99.90
31639;DHT22;18248;51.522;7.020;2022-10-16T00:31:25;14.50;99.90
31639;DHT22;18248;51.522;7.020;2022-10-16T00:34:29;14.50;99.90
31639;DHT22;18248;51.522;7.020;2022-10-16T00:37:28;14.40;99.90
31639;DHT22;18248;51.522;7.020;2022-10-16T00:40:26;14.40;99.90
31639;DHT22;18248;51.522;7.020;2022-10-16T00:43:49;14.40;99.90
31639;DHT22;18248;51.522;7.020;2022-10-16T00:46:48;14.40;99.90
31639;DHT22;18248;51.522;7.020;2022-10-16T00:49:50;14.40;99.90
31639;DHT22;18248;51.522;7.020;2022-10-16T00:52:50;14.40;99.90
31639;DHT22;18248;51.522;7.020;2022-10-16T00:55:49;14.40;99.90
31639;DHT22;18248;51.522;7.020;2022-10-16T00:58:48;14.40;99.90
31639;DHT22;18248;51.522;7.020;2022-10-16T01:01:46;14.40;99.90
31639;DHT22;18248;51.522;7.020;2022-10-16T01:04:48;14.40;99.90
31639;DHT22;18248;51.522;7.020;2022-10-16T01:08:09;14.40;99.90
31639;DHT22;18248;51.522;7.020;2022-10-16T01:11:19;14.40;99.90
31639;DHT22;18248;51.522;7.020;2022-10-16T01:14:27;14.40;99.90
31639;DHT22;18248;51.522;7.020;2022-10-16T01:17:38;14.40;99.90
31639;DHT22;18248;51.522;7.020;2022-10-16T01:20:55;14.40;99.90
31639;DHT22;18248;51.522;7.020;2022-10-16T01:27:30;14.40;99.90
31639;DHT22;18248;51.522;7.020;2022-10-16T01:30:36;14.30;99.90
31639;DHT22;18248;51.522;7.020;2022-10-16T01:33:58;14.30;99.90
31639;DHT22;18248;51.522;7.020;2022-10-16T01:37:05;14.30;99.90
31639;DHT22;18248;51.522;7.020;2022-10-16T01:40:10;14.30;99.90
31639;DHT22;18248;51.522;7.020;2022-10-16T01:43:14;14.30;99.90
31639;DHT22;18248;51.522;7.020;2022-10-16T01:46:14;14.30;99.90
31639;DHT22;18248;51.522;7.020;2022-10-16T01:49:14;14.30;99.90
31639;DHT22;18248;51.522;7.020;2022-10-16T01:52:17;14.20;99.90
31639;DHT22;18248;51.522;7.020;2022-10-16T01:55:22;14.20;99.90
31639;DHT22;18248;51.522;7.020;2022-10-16T01:58:24;14.20;99.90
31639;DHT22;18248;51.522;7.020;2022-10-16T02:01:26;14.20;99.90
31639;DHT22;18248;51.522;7.020;2022-10-16T02:04:36;14.20;99.90
31639;DHT22;18248;51.522;7.020;2022-10-16T02:07:36;14.30;99.90
31639;DHT22;18248;51.522;7.020;2022-10-16T02:10:36;14.30;99.90
31639;DHT22;18248;51.522;7.020;2022-10-16T02:16:41;14.30;99.90
31639;DHT22;18248;51.522;7.020;2022-10-16T02:19:41;14.30;99.90
31639;DHT22;18248;51.522;7.020;2022-10-16T02:22:43;14.30;99.90
31639;DHT22;18248;51.522;7.020;2022-10-16T02:25:45;14.30;99.90
31639;DHT22;18248;51.522;7.020;2022-10-16T02:28:48;14.40;99.90
31639;DHT22;18248;51.522;7.020;2022-10-16T02:31:58;14.40;99.90
31639;DHT22;18248;51.522;7.020;2022-10-16T02:34:59;14.40;99.90
31639;DHT22;18248;51.522;7.020;2022-10-16T02:37:59;14.40;99.90
31639;DHT22;18248;51.522;7.020;2022-10-16T02:40:59;14.40;99.90
31639;DHT22;18248;51.522;7.020;2022-10-16T02:43:58;14.40;99.90
31639;DHT22;18248;51.522;7.020;2022-10-16T02:46:57;14.40;99.90
31639;DHT22;18248;51.522;7.020;2022-10-16T02:49:55;14.40;99.90
31639;DHT22;18248;51.522;7.020;2022-10-16T02:52:54;14.40;99.90
31639;DHT22;18248;51.522;7.020;2022-10-16T02:55:52;14.40;99.90
31639;DHT22;18248;51.522;7.020;2022-10-16T02:58:51;14.50;99.90
31639;DHT22;18248;51.522;7.020;2022-10-16T03:01:49;14.40;99.90
31639;DHT22;18248;51.522;7.020;2022-10-16T03:04:48;14.40;99.90
31639;DHT22;18248;51.522;7.020;2022-10-16T03:07:48;14.40;99.90
31639;DHT22;18248;51.522;7.020;2022-10-16T03:10:46;14.40;99.90
31639;DHT22;18248;51.522;7.020;2022-10-16T03:13:45;14.50;99.90
31639;DHT22;18248;51.522;7.020;2022-10-16T03:16:43;14.50;99.90
31639;DHT22;18248;51.522;7.020;2022-10-16T03:19:42;14.50;99.90
31639;DHT22;18248;51.522;7.020;2022-10-16T03:22:40;14.50;99.90
31639;DHT22;18248;51.522;7.020;2022-10-16T03:25:39;14.50;99.90
31639;DHT22;18248;51.522;7.020;2022-10-16T03:28:38;14.50;99.90
31639;DHT22;18248;51.522;7.020;2022-10-16T03:31:36;14.50;99.90
31639;DHT22;18248;51.522;7.020;2022-10-16T03:34:35;14.60;99.90
31639;DHT22;18248;51.522;7.020;2022-10-16T03:37:33;14.50;99.90
31639;DHT22;18248;51.522;7.020;2022-10-16T03:40:33;14.60;99.90
31639;DHT22;18248;51.522;7.020;2022-10-16T03:43:32;14.60;99.90
31639;DHT22;18248;51.522;7.020;2022-10-16T03:46:30;14.60;99.90
31639;DHT22;18248;51.522;7.020;2022-10-16T03:49:29;14.50;99.90
31639;DHT22;18248;51.522;7.020;2022-10-16T03:52:27;14.60;99.90
31639;DHT22;18248;51.522;7.020;2022-10-16T03:55:26;14.50;99.90
31639;DHT22;18248;51.522;7.020;2022-10-16T03:58:25;14.50;99.90
31639;DHT22;18248;51.522;7.020;2022-10-16T04:01:24;14.50;99.90
31639;DHT22;18248;51.522;7.020;2022-10-16T04:04:22;14.50;99.90
31639;DHT22;18248;51.522;7.020;2022-10-16T04:07:21;14.50;99.90
31639;DHT22;18248;51.522;7.020;2022-10-16T04:10:19;14.50;99.90
31639;DHT22;18248;51.522;7.020;2022-10-16T04:13:18;14.50;99.90
31639;DHT22;18248;51.522;7.020;2022-10-16T04:16:16;14.50;99.90
31639;DHT22;18248;51.522;7.020;2022-10-16T04:19:15;14.40;99.90
31639;DHT22;18248;51.522;7.020;2022-10-16T04:22:14;14.40;99.90
31639;DHT22;18248;51.522;7.020;2022-10-16T04:25:12;14.50;99.90
31639;DHT22;18248;51.522;7.020;2022-10-16T04:28:11;14.50;99.90
31639;DHT22;18248;51.522;7.020;2022-10-16T04:31:11;14.50;99.90
31639;DHT22;18248;51.522;7.020;2022-10-16T04:34:10;14.40;99.90
31639;DHT22;18248;51.522;7.020;2022-10-16T04:37:08;14.40;99.90
31639;DHT22;18248;51.522;7.020;2022-10-16T04:40:08;14.40;99.90
31639;DHT22;18248;51.522;7.020;2022-10-16T04:43:07;14.40;99.90
31639;DHT22;18248;51.522;7.020;2022-10-16T04:46:05;14.40;99.90
31639;DHT22;18248;51.522;7.020;2022-10-16T04:49:04;14.40;99.90
31639;DHT22;18248;51.522;7.020;2022-10-16T04:52:03;14.40;99.90
31639;DHT22;18248;51.522;7.020;2022-10-16T04:55:01;14.30;99.90
31639;DHT22;18248;51.522;7.020;2022-10-16T04:58:01;14.30;99.90
31639;DHT22;18248;51.522;7.020;2022-10-16T05:00:59;14.30;99.90
31639;DHT22;18248;51.522;7.020;2022-10-16T05:03:58;14.40;99.90
31639;DHT22;18248;51.522;7.020;2022-10-16T05:06:56;14.40;99.90
31639;DHT22;18248;51.522;7.020;2022-10-16T05:09:55;14.40;99.90
31639;DHT22;18248;51.522;7.020;2022-10-16T05:12:53;14.40;99.90
31639;DHT22;18248;51.522;7.020;2022-10-16T05:15:52;14.30;99.90
31639;DHT22;18248;51.522;7.020;2022-10-16T05:18:54;14.30;99.90
31639;DHT22;18248;51.522;7.020;2022-10-16T05:21:52;14.30;99.90
31639;DHT22;18248;51.522;7.020;2022-10-16T05:24:51;14.40;99.90
31639;DHT22;18248;51.522;7.020;2022-10-16T05:27:50;14.30;99.90
31639;DHT22;18248;51.522;7.020;2022-10-16T05:30:48;14.30;99.90
31639;DHT22;18248;51.522;7.020;2022-10-16T05:33:47;14.40;99.90
31639;DHT22;18248;51.522;7.020;2022-10-16T05:36:46;14.30;99.90
31639;DHT22;18248;51.522;7.020;2022-10-16T05:39:44;14.30;99.90
31639;DHT22;18248;51.522;7.020;2022-10-16T05:42:43;14.40;99.90
31639;DHT22;18248;51.522;7.020;2022-10-16T05:45:41;14.30;99.90
31639;DHT22;18248;51.522;7.020;2022-10-16T05:48:40;14.30;99.90
31639;DHT22;18248;51.522;7.020;2022-10-16T05:51:38;14.30;99.90
31639;DHT22;18248;51.522;7.020;2022-10-16T05:54:37;14.30;99.90
31639;DHT22;18248;51.522;7.020;2022-10-16T05:57:35;14.40;99.90
31639;DHT22;18248;51.522;7.020;2022-10-16T06:00:35;14.40;99.90
31639;DHT22;18248;51.522;7.020;2022-10-16T06:03:35;14.40;99.90
31639;DHT22;18248;51.522;7.020;2022-10-16T06:06:34;14.40;99.90
31639;DHT22;18248;51.522;7.020;2022-10-16T06:09:34;14.30;99.90
31639;DHT22;18248;51.522;7.020;2022-10-16T06:12:33;14.30;99.90
31639;DHT22;18248;51.522;7.020;2022-10-16T06:15:31;14.40;99.90
31639;DHT22;18248;51.522;7.020;2022-10-16T06:18:30;14.30;99.90
31639;DHT22;18248;51.522;7.020;2022-10-16T06:21:29;14.30;99.90
31639;DHT22;18248;51.522;7.020;2022-10-16T06:24:27;14.30;99.90
31639;DHT22;18248;51.522;7.020;2022-10-16T06:27:26;14.40;99.90
31639;DHT22;18248;51.522;7.020;2022-10-16T06:30:24;14.30;99.90
31639;DHT22;18248;51.522;7.020;2022-10-16T06:33:23;14.30;99.90
31639;DHT22;18248;51.522;7.020;2022-10-16T06:36:22;14.40;99.90
31639;DHT22;18248;51.522;7.020;2022-10-16T06:39:21;14.40;99.90
31639;DHT22;18248;51.522;7.020;2022-10-16T06:42:19;14.40;99.90
31639;DHT22;18248;51.522;7.020;2022-10-16T06:45:18;14.50;99.90
31639;DHT22;18248;51.522;7.020;2022-10-16T06:48:17;14.40;99.90
31639;DHT22;18248;51.522;7.020;2022-10-16T06:51:21;14.50;99.90
31639;DHT22;18248;51.522;7.020;2022-10-16T06:54:20;14.50;99.90
31639;DHT22;18248;51.522;7.020;2022-10-16T06:57:18;14.60;99.90
31639;DHT22;18248;51.522;7.020;2022-10-16T07:00:17;14.60;99.90
31639;DHT22;18248;51.522;7.020;2022-10-16T07:03:16;14.60;99.90
31639;DHT22;18248;51.522;7.020;2022-10-16T07:06:18;14.60;99.90
31639;DHT22;18248;51.522;7.020;2022-10-16T07:09:17;14.60;99.90
31639;DHT22;18248;51.522;7.020;2022-10-16T07:12:15;14.60;99.90
31639;DHT22;18248;51.522;7.020;2022-10-16T07:15:14;14.60;99.90
31639;DHT22;18248;51.522;7.020;2022-10-16T07:18:12;14.60;99.90
31639;DHT22;18248;51.522;7.020;2022-10-16T07:21:17;14.50;99.90
31639;DHT22;18248;51.522;7.020;2022-10-16T07:24:16;14.50;99.90
31639;DHT22;18248;51.522;7.020;2022-10-16T07:27:15;14.50;99.90
31639;DHT22;18248;51.522;7.020;2022-10-16T07:30:15;14.50;99.90
31639;DHT22;18248;51.522;7.020;2022-10-16T07:33:14;14.50;99.90
31639;DHT22;18248;51.522;7.020;2022-10-16T07:36:15;14.50;99.90
31639;DHT22;18248;51.522;7.020;2022-10-16T07:39:14;14.50;99.90
31639;DHT22;18248;51.522;7.020;2022-10-16T07:42:14;14.60;99.90
31639;DHT22;18248;51.522;7.020;2022-10-16T07:45:13;14.60;99.90
31639;DHT22;18248;51.522;7.020;2022-10-16T07:48:12;14.60;99.90
31639;DHT22;18248;51.522;7.020;2022-10-16T07:51:11;14.70;99.90
31639;DHT22;18248;51.522;7.020;2022-10-16T07:54:10;14.70;99.90
31639;DHT22;18248;51.522;7.020;2022-10-16T07:57:08;14.80;99.90
31639;DHT22;18248;51.522;7.020;2022-10-16T08:00:08;14.80;99.90
31639;DHT22;18248;51.522;7.020;2022-10-16T08:03:11;14.90;99.90
31639;DHT22;18248;51.522;7.020;2022-10-16T08:06:10;15.00;99.90
31639;DHT22;18248;51.522;7.020;2022-10-16T08:09:08;15.10;99.90
31639;DHT22;18248;51.522;7.020;2022-10-16T08:12:07;15.10;99.90
31639;DHT22;18248;51.522;7.020;2022-10-16T08:15:07;15.20;99.90
31639;DHT22;18248;51.522;7.020;2022-10-16T08:18:06;15.30;99.90
31639;DHT22;18248;51.522;7.020;2022-10-16T08:21:05;15.30;99.90
31639;DHT22;18248;51.522;7.020;2022-10-16T08:24:04;15.40;99.90
31639;DHT22;18248;51.522;7.020;2022-10-16T08:27:03;15.50;99.90
31639;DHT22;18248;51.522;7.020;2022-10-16T08:30:01;15.50;99.90
31639;DHT22;18248;51.522;7.020;2022-10-16T08:33:01;15.60;99.90
31639;DHT22;18248;51.522;7.020;2022-10-16T08:36:00;15.70;99.90
31639;DHT22;18248;51.522;7.020;2022-10-16T08:38:59;15.70;99.90
31639;DHT22;18248;51.522;7.020;2022-10-16T08:42:27;15.80;99.90
31639;DHT22;18248;51.522;7.020;2022-10-16T08:45:39;15.80;99.90
31639;DHT22;18248;51.522;7.020;2022-10-16T08:48:51;15.90;99.90
31639;DHT22;18248;51.522;7.020;2022-10-16T08:51:51;16.00;99.90
31639;DHT22;18248;51.522;7.020;2022-10-16T08:54:54;16.00;99.90
31639;DHT22;18248;51.522;7.020;2022-10-16T08:57:53;16.10;99.90
31639;DHT22;18248;51.522;7.020;2022-10-16T09:00:55;16.10;99.90
31639;DHT22;18248;51.522;7.020;2022-10-16T09:04:06;16.20;99.90
31639;DHT22;18248;51.522;7.020;2022-10-16T09:07:20;16.30;99.90
31639;DHT22;18248;51.522;7.020;2022-10-16T09:10:26;16.30;99.90
31639;DHT22;18248;51.522;7.020;2022-10-16T09:13:42;16.40;99.90
31639;DHT22;18248;51.522;7.020;2022-10-16T09:16:51;16.40;99.90
31639;DHT22;18248;51.522;7.020;2022-10-16T09:20:02;16.40;99.90
31639;DHT22;18248;51.522;7.020;2022-10-16T09:26:05;16.60;99.90
31639;DHT22;18248;51.522;7.020;2022-10-16T09:29:13;16.70;99.90
31639;DHT22;18248;51.522;7.020;2022-10-16T09:32:14;16.80;99.90
31639;DHT22;18248;51.522;7.020;2022-10-16T09:35:17;16.90;99.90
31639;DHT22;18248;51.522;7.020;2022-10-16T09:38:29;17.10;99.90
31639;DHT22;18248;51.522;7.020;2022-10-16T09:41:27;17.10;99.90
31639;DHT22;18248;51.522;7.020;2022-10-16T09:44:28;17.20;99.90
31639;DHT22;18248;51.522;7.020;2022-10-16T09:47:29;17.40;99.90
31639;DHT22;18248;51.522;7.020;2022-10-16T09:50:28;17.60;99.90
31639;DHT22;18248;51.522;7.020;2022-10-16T09:53:39;17.70;99.90
31639;DHT22;18248;51.522;7.020;2022-10-16T09:56:38;17.90;99.90
31639;DHT22;18248;51.522;7.020;2022-10-16T09:59:51;18.00;99.90
31639;DHT22;18248;51.522;7.020;2022-10-16T10:02:50;18.20;99.90
31639;DHT22;18248;51.522;7.020;2022-10-16T10:05:49;18.30;99.90
31639;DHT22;18248;51.522;7.020;2022-10-16T10:08:54;18.40;99.90
31639;DHT22;18248;51.522;7.020;2022-10-16T10:14:55;18.50;99.90
31639;DHT22;18248;51.522;7.020;2022-10-16T10:17:56;18.60;99.90
31639;DHT22;18248;51.522;7.020;2022-10-16T10:21:00;18.70;99.90
31639;DHT22;18248;51.522;7.020;2022-10-16T10:23:59;18.90;99.90
31639;DHT22;18248;51.522;7.020;2022-10-16T10:27:13;19.10;99.90
31639;DHT22;18248;51.522;7.020;2022-10-16T10:34:00;19.50;99.90
31639;DHT22;18248;51.522;7.020;2022-10-16T10:40:34;19.90;99.90
31639;DHT22;18248;51.522;7.020;2022-10-16T10:47:23;20.20;99.90
31639;DHT22;18248;51.522;7.020;2022-10-16T10:50:39;20.10;99.90
31639;DHT22;18248;51.522;7.020;2022-10-16T10:57:28;20.10;99.90
31639;DHT22;18248;51.522;7.020;2022-10-16T11:00:28;19.90;99.90
31639;DHT22;18248;51.522;7.020;2022-10-16T11:06:57;20.00;99.90
31639;DHT22;18248;51.522;7.020;2022-10-16T11:16:40;19.90;99.90
31639;DHT22;18248;51.522;7.020;2022-10-16T11:20:05;19.90;99.90
31639;DHT22;18248;51.522;7.020;2022-10-16T11:23:39;19.80;99.90
31639;DHT22;18248;51.522;7.020;2022-10-16T11:26:41;19.80;99.90
31639;DHT22;18248;51.522;7.020;2022-10-16T11:29:52;20.10;99.90
31639;DHT22;18248;51.522;7.020;2022-10-16T11:36:33;20.30;99.90
31639;DHT22;18248;51.522;7.020;2022-10-16T11:39:34;20.20;99.90
31639;DHT22;18248;51.522;7.020;2022-10-16T11:42:37;20.40;99.90
31639;DHT22;18248;51.522;7.020;2022-10-16T11:45:45;20.50;99.90
31639;DHT22;18248;51.522;7.020;2022-10-16T11:49:08;20.50;99.90
31639;DHT22;18248;51.522;7.020;2022-10-16T11:52:20;20.50;99.90
31639;DHT22;18248;51.522;7.020;2022-10-16T11:55:24;20.60;99.90
31639;DHT22;18248;51.522;7.020;2022-10-16T12:05:27;20.90;99.90
31639;DHT22;18248;51.522;7.020;2022-10-16T12:08:28;21.10;99.90
31639;DHT22;18248;51.522;7.020;2022-10-16T12:11:35;20.90;99.90
31639;DHT22;18248;51.522;7.020;2022-10-16T12:14:39;21.00;99.90
31639;DHT22;18248;51.522;7.020;2022-10-16T12:17:38;21.30;99.90
31639;DHT22;18248;51.522;7.020;2022-10-16T12:20:36;21.40;99.90
31639;DHT22;18248;51.522;7.020;2022-10-16T12:23:49;21.50;99.90
31639;DHT22;18248;51.522;7.020;2022-10-16T12:26:49;21.50;99.90
31639;DHT22;18248;51.522;7.020;2022-10-16T12:29:58;21.50;99.90
31639;DHT22;18248;51.522;7.020;2022-10-16T12:33:01;21.70;99.90
31639;DHT22;18248;51.522;7.020;2022-10-16T12:36:04;21.80;99.90
31639;DHT22;18248;51.522;7.020;2022-10-16T12:39:04;22.00;99.90
31639;DHT22;18248;51.522;7.020;2022-10-16T12:42:05;22.00;99.90
31639;DHT22;18248;51.522;7.020;2022-10-16T12:45:27;22.00;99.90
31639;DHT22;18248;51.522;7.020;2022-10-16T12:48:26;22.00;99.90
31639;DHT22;18248;51.522;7.020;2022-10-16T12:54:36;22.30;99.90
31639;DHT22;18248;51.522;7.020;2022-10-16T13:01:37;22.50;99.90
31639;DHT22;18248;51.522;7.020;2022-10-16T13:14:45;22.50;99.90
31639;DHT22;18248;51.522;7.020;2022-10-16T13:18:03;22.60;99.90
31639;DHT22;18248;51.522;7.020;2022-10-16T13:21:33;22.50;99.90
31639;DHT22;18248;51.522;7.020;2022-10-16T13:28:07;22.60;99.90
31639;DHT22;18248;51.522;7.020;2022-10-16T13:31:17;22.60;99.90
31639;DHT22;18248;51.522;7.020;2022-10-16T13:34:19;22.50;99.90
31639;DHT22;18248;51.522;7.020;2022-10-16T13:37:23;22.30;99.90
31639;DHT22;18248;51.522;7.020;2022-10-16T13:40:24;22.20;99.90
31639;DHT22;18248;51.522;7.020;2022-10-16T13:43:32;22.20;99.90
31639;DHT22;18248;51.522;7.020;2022-10-16T13:46:31;22.00;99.90
31639;DHT22;18248;51.522;7.020;2022-10-16T13:49:32;22.00;99.90
31639;DHT22;18248;51.522;7.020;2022-10-16T13:52:31;21.90;99.90
31639;DHT22;18248;51.522;7.020;2022-10-16T13:55:31;21.80;99.90
31639;DHT22;18248;51.522;7.020;2022-10-16T13:58:31;21.70;99.90
31639;DHT22;18248;51.522;7.020;2022-10-16T14:01:32;21.70;99.90
31639;DHT22;18248;51.522;7.020;2022-10-16T14:04:33;21.50;99.90
31639;DHT22;18248;51.522;7.020;2022-10-16T14:07:32;21.50;99.90
31639;DHT22;18248;51.522;7.020;2022-10-16T14:10:33;21.50;99.90
31639;DHT22;18248;51.522;7.020;2022-10-16T14:13:36;21.50;99.90
31639;DHT22;18248;51.522;7.020;2022-10-16T14:16:35;21.40;99.90
31639;DHT22;18248;51.522;7.020;2022-10-16T14:19:35;21.40;99.90
31639;DHT22;18248;51.522;7.020;2022-10-16T14:22:45;21.40;99.90
31639;DHT22;18248;51.522;7.020;2022-10-16T14:25:44;21.40;99.90
31639;DHT22;18248;51.522;7.020;2022-10-16T14:28:43;21.20;99.90
31639;DHT22;18248;51.522;7.020;2022-10-16T14:31:42;21.10;99.90
31639;DHT22;18248;51.522;7.020;2022-10-16T14:34:54;20.90;99.90
31639;DHT22;18248;51.522;7.020;2022-10-16T14:37:54;20.80;99.90
31639;DHT22;18248;51.522;7.020;2022-10-16T14:40:54;20.80;99.90
31639;DHT22;18248;51.522;7.020;2022-10-16T14:43:56;20.80;99.90
31639;DHT22;18248;51.522;7.020;2022-10-16T14:46:56;20.80;99.90
31639;DHT22;18248;51.522;7.020;2022-10-16T14:49:55;20.80;99.90
31639;DHT22;18248;51.522;7.020;2022-10-16T14:52:57;20.90;99.90
31639;DHT22;18248;51.522;7.020;2022-10-16T14:55:56;21.00;99.90
31639;DHT22;18248;51.522;7.020;2022-10-16T14:58:55;20.90;99.90
31639;DHT22;18248;51.522;7.020;2022-10-16T15:01:53;20.90;99.90
31639;DHT22;18248;51.522;7.020;2022-10-16T15:04:53;20.80;99.90
31639;DHT22;18248;51.522;7.020;2022-10-16T15:07:53;20.80;99.90
31639;DHT22;18248;51.522;7.020;2022-10-16T15:10:52;20.70;99.90
31639;DHT22;18248;51.522;7.020;2022-10-16T15:13:51;20.70;99.90
31639;DHT22;18248;51.522;7.020;2022-10-16T15:16:49;20.70;99.90
31639;DHT22;18248;51.522;7.020;2022-10-16T15:19:48;20.60;99.90
31639;DHT22;18248;51.522;7.020;2022-10-16T15:22:46;20.60;99.90
31639;DHT22;18248;51.522;7.020;2022-10-16T15:25:53;20.60;99.90
31639;DHT22;18248;51.522;7.020;2022-10-16T15:28:52;20.60;99.90
31639;DHT22;18248;51.522;7.020;2022-10-16T15:31:51;20.50;99.90
31639;DHT22;18248;51.522;7.020;2022-10-16T15:34:49;20.50;99.90
31639;DHT22;18248;51.522;7.020;2022-10-16T15:37:48;20.50;99.90
31639;DHT22;18248;51.522;7.020;2022-10-16T15:40:47;20.50;99.90
31639;DHT22;18248;51.522;7.020;2022-10-16T15:43:48;20.40;99.90
31639;DHT22;18248;51.522;7.020;2022-10-16T15:46:47;20.40;99.90
31639;DHT22;18248;51.522;7.020;2022-10-16T15:49:46;20.30;99.90
31639;DHT22;18248;51.522;7.020;2022-10-16T15:52:44;20.30;99.90
31639;DHT22;18248;51.522;7.020;2022-10-16T15:55:43;20.20;99.90
31639;DHT22;18248;51.522;7.020;2022-10-16T15:58:42;20.20;99.90
31639;DHT22;18248;51.522;7.020;2022-10-16T16:01:42;20.10;99.90
31639;DHT22;18248;51.522;7.020;2022-10-16T16:04:41;20.10;99.90
31639;DHT22;18248;51.522;7.020;2022-10-16T16:07:39;20.00;99.90
31639;DHT22;18248;51.522;7.020;2022-10-16T16:10:38;20.00;99.90
31639;DHT22;18248;51.522;7.020;2022-10-16T16:13:37;19.90;99.90
31639;DHT22;18248;51.522;7.020;2022-10-16T16:16:36;19.80;99.90
31639;DHT22;18248;51.522;7.020;2022-10-16T16:19:36;19.70;99.90
31639;DHT22;18248;51.522;7.020;2022-10-16T16:22:34;19.70;99.90
31639;DHT22;18248;51.522;7.020;2022-10-16T16:25:34;19.60;99.90
31639;DHT22;18248;51.522;7.020;2022-10-16T16:28:33;19.50;99.90
31639;DHT22;18248;51.522;7.020;2022-10-16T16:31:32;19.40;99.90
31639;DHT22;18248;51.522;7.020;2022-10-16T16:34:32;19.30;99.90
31639;DHT22;18248;51.522;7.020;2022-10-16T16:37:31;19.10;99.90
31639;DHT22;18248;51.522;7.020;2022-10-16T16:40:29;19.00;99.90
31639;DHT22;18248;51.522;7.020;2022-10-16T16:43:31;18.80;99.90
31639;DHT22;18248;51.522;7.020;2022-10-16T16:46:31;18.80;99.90
31639;DHT22;18248;51.522;7.020;2022-10-16T16:49:30;18.70;99.90
31639;DHT22;18248;51.522;7.020;2022-10-16T16:52:29;18.70;99.90
31639;DHT22;18248;51.522;7.020;2022-10-16T16:55:27;18.60;99.90
31639;DHT22;18248;51.522;7.020;2022-10-16T16:58:27;18.50;99.90
31639;DHT22;18248;51.522;7.020;2022-10-16T17:01:27;18.50;99.90
31639;DHT22;18248;51.522;7.020;2022-10-16T17:04:26;18.40;99.90
31639;DHT22;18248;51.522;7.020;2022-10-16T17:07:25;18.30;99.90
31639;DHT22;18248;51.522;7.020;2022-10-16T17:10:25;18.30;99.90
31639;DHT22;18248;51.522;7.020;2022-10-16T17:13:25;18.20;99.90
31639;DHT22;18248;51.522;7.020;2022-10-16T17:16:31;18.10;99.90
31639;DHT22;18248;51.522;7.020;2022-10-16T17:19:30;18.00;99.90
31639;DHT22;18248;51.522;7.020;2022-10-16T17:22:29;18.00;99.90
31639;DHT22;18248;51.522;7.020;2022-10-16T17:25:28;18.00;99.90
31639;DHT22;18248;51.522;7.020;2022-10-16T17:28:27;18.00;99.90
31639;DHT22;18248;51.522;7.020;2022-10-16T17:31:31;18.00;99.90
31639;DHT22;18248;51.522;7.020;2022-10-16T17:34:30;18.00;99.90
31639;DHT22;18248;51.522;7.020;2022-10-16T17:37:29;18.00;99.90
31639;DHT22;18248;51.522;7.020;2022-10-16T17:40:28;17.90;99.90
31639;DHT22;18248;51.522;7.020;2022-10-16T17:43:26;17.80;99.90
31639;DHT22;18248;51.522;7.020;2022-10-16T17:46:25;17.80;99.90
31639;DHT22;18248;51.522;7.020;2022-10-16T17:49:26;17.80;99.90
31639;DHT22;18248;51.522;7.020;2022-10-16T17:52:24;17.70;99.90
31639;DHT22;18248;51.522;7.020;2022-10-16T17:55:23;17.70;99.90
31639;DHT22;18248;51.522;7.020;2022-10-16T17:58:21;17.70;99.90
31639;DHT22;18248;51.522;7.020;2022-10-16T18:01:21;17.80;99.90
31639;DHT22;18248;51.522;7.020;2022-10-16T18:04:21;17.80;99.90
31639;DHT22;18248;51.522;7.020;2022-10-16T18:07:20;17.80;99.90
31639;DHT22;18248;51.522;7.020;2022-10-16T18:10:18;17.80;99.90
31639;DHT22;18248;51.522;7.020;2022-10-16T18:13:17;17.70;99.90
31639;DHT22;18248;51.522;7.020;2022-10-16T18:16:16;17.70;99.90
31639;DHT22;18248;51.522;7.020;2022-10-16T18:19:14;17.70;99.90
31639;DHT22;18248;51.522;7.020;2022-10-16T18:22:13;17.70;99.90
31639;DHT22;18248;51.522;7.020;2022-10-16T18:25:11;17.60;99.90
31639;DHT22;18248;51.522;7.020;2022-10-16T18:28:10;17.60;99.90
31639;DHT22;18248;51.522;7.020;2022-10-16T18:31:12;17.60;99.90
31639;DHT22;18248;51.522;7.020;2022-10-16T18:34:11;17.60;99.90
31639;DHT22;18248;51.522;7.020;2022-10-16T18:37:09;17.50;99.90
31639;DHT22;18248;51.522;7.020;2022-10-16T18:40:09;17.50;99.90
31639;DHT22;18248;51.522;7.020;2022-10-16T18:43:08;17.50;99.90
31639;DHT22;18248;51.522;7.020;2022-10-16T18:46:10;17.50;99.90
31639;DHT22;18248;51.522;7.020;2022-10-16T18:49:09;17.50;99.90
31639;DHT22;18248;51.522;7.020;2022-10-16T18:52:07;17.50;99.90
31639;DHT22;18248;51.522;7.020;2022-10-16T18:55:08;17.50;99.90
31639;DHT22;18248;51.522;7.020;2022-10-16T18:58:06;17.50;99.90
31639;DHT22;18248;51.522;7.020;2022-10-16T19:01:06;17.50;99.90
31639;DHT22;18248;51.522;7.020;2022-10-16T19:04:10;17.50;99.90
31639;DHT22;18248;51.522;7.020;2022-10-16T19:07:09;17.50;99.90
31639;DHT22;18248;51.522;7.020;2022-10-16T19:10:08;17.50;99.90
31639;DHT22;18248;51.522;7.020;2022-10-16T19:13:08;17.50;99.90
31639;DHT22;18248;51.522;7.020;2022-10-16T19:16:13;17.50;99.90
31639;DHT22;18248;51.522;7.020;2022-10-16T19:19:14;17.40;99.90
31639;DHT22;18248;51.522;7.020;2022-10-16T19:22:13;17.40;99.90
31639;DHT22;18248;51.522;7.020;2022-10-16T19:25:24;17.30;99.90
31639;DHT22;18248;51.522;7.020;2022-10-16T19:28:25;17.30;99.90
31639;DHT22;18248;51.522;7.020;2022-10-16T19:31:25;17.30;99.90
31639;DHT22;18248;51.522;7.020;2022-10-16T19:34:24;17.30;99.90
31639;DHT22;18248;51.522;7.020;2022-10-16T19:37:24;17.20;99.90
31639;DHT22;18248;51.522;7.020;2022-10-16T19:40:24;17.20;99.90
31639;DHT22;18248;51.522;7.020;2022-10-16T19:43:23;17.20;99.90
31639;DHT22;18248;51.522;7.020;2022-10-16T19:46:23;17.20;99.90
31639;DHT22;18248;51.522;7.020;2022-10-16T19:49:22;17.20;99.90
31639;DHT22;18248;51.522;7.020;2022-10-16T19:52:21;17.20;99.90
31639;DHT22;18248;51.522;7.020;2022-10-16T19:55:19;17.10;99.90
31639;DHT22;18248;51.522;7.020;2022-10-16T19:58:18;17.10;99.90
31639;DHT22;18248;51.522;7.020;2022-10-16T20:01:17;17.10;99.90
31639;DHT22;18248;51.522;7.020;2022-10-16T20:04:16;17.10;99.90
31639;DHT22;18248;51.522;7.020;2022-10-16T20:07:15;17.10;99.90
31639;DHT22;18248;51.522;7.020;2022-10-16T20:10:13;17.10;99.90
31639;DHT22;18248;51.522;7.020;2022-10-16T20:13:12;17.10;99.90